Time;durP1;ratioP1;P1;durP2;ratioP2;P2;SDS_P1;SDS_P2;PMS_P1;PMS_P2;Temp;Humidity;BMP_temperature;BMP_pressure;BME280_temperature;BME280_humidity;BME280_pressure;Samples;Min_cycle;Max_cycle;Signal;HPM_P1;HPM_P2
2021/05/26 00:00:35;;;;;;;1.75;0.80;;;10.70;59.10;;;;;;5027417;28;20044;-91
2021/05/26 00:03:01;;;;;;;2.22;0.70;;;10.70;59.40;;;;;;5014824;28;20032;-92
2021/05/26 00:05:29;;;;;;;1.75;0.68;;;10.70;59.50;;;;;;5014127;28;20026;-92
2021/05/26 00:07:54;;;;;;;0.80;0.50;;;10.70;59.70;;;;;;5014423;28;20574;-91
2021/05/26 00:10:20;;;;;;;1.63;0.70;;;10.70;59.80;;;;;;5011359;28;20076;-91
2021/05/26 00:12:46;;;;;;;1.92;0.65;;;10.70;59.90;;;;;;5015632;28;20032;-92
2021/05/26 00:15:12;;;;;;;1.77;0.70;;;10.70;60.00;;;;;;5011424;28;20104;-91
2021/05/26 00:17:38;;;;;;;1.52;0.60;;;10.70;60.10;;;;;;5014023;28;20385;-92
2021/05/26 00:20:04;;;;;;;4.53;0.77;;;10.80;60.30;;;;;;5015197;28;20028;-91
2021/05/26 00:22:31;;;;;;;3.42;0.93;;;10.80;60.30;;;;;;5014819;28;20527;-92
2021/05/26 00:24:56;;;;;;;1.17;0.60;;;10.80;60.30;;;;;;5015569;28;20037;-92
2021/05/26 00:27:22;;;;;;;1.98;0.75;;;10.80;60.40;;;;;;5014862;28;20493;-93
2021/05/26 00:29:48;;;;;;;4.43;1.10;;;10.80;60.50;;;;;;5015404;28;20083;-92
2021/05/26 00:32:14;;;;;;;3.60;0.73;;;10.70;60.50;;;;;;5013310;28;20117;-92
2021/05/26 00:34:40;;;;;;;2.28;0.70;;;10.70;60.60;;;;;;5012820;28;20073;-90
2021/05/26 00:37:05;;;;;;;2.05;0.68;;;10.70;60.90;;;;;;5015632;28;20116;-91
2021/05/26 00:39:31;;;;;;;1.85;0.80;;;10.70;61.10;;;;;;5015050;28;20468;-92
2021/05/26 00:41:57;;;;;;;1.10;0.70;;;10.70;61.20;;;;;;5015218;28;20026;-92
2021/05/26 00:44:23;;;;;;;2.08;0.98;;;10.70;61.40;;;;;;5013772;28;20022;-92
2021/05/26 00:46:49;;;;;;;2.10;0.95;;;10.70;61.60;;;;;;5015325;28;20029;-91
2021/05/26 00:49:15;;;;;;;0.63;0.52;;;10.70;61.70;;;;;;5015017;28;20021;-92
2021/05/26 00:51:41;;;;;;;2.90;0.80;;;10.80;61.80;;;;;;5014782;28;20493;-92
2021/05/26 00:54:06;;;;;;;3.42;1.05;;;10.70;61.80;;;;;;5014760;28;20065;-92
2021/05/26 00:56:33;;;;;;;2.47;0.70;;;10.70;61.90;;;;;;5014655;28;20051;-92
2021/05/26 00:59:03;;;;;;;2.67;0.80;;;10.70;62.00;;;;;;5015772;28;20112;-91
2021/05/26 01:01:28;;;;;;;3.03;0.70;;;10.70;62.20;;;;;;5015556;28;20041;-91
2021/05/26 01:03:55;;;;;;;1.88;0.80;;;10.70;62.10;;;;;;5012966;28;20095;-92
2021/05/26 01:06:22;;;;;;;0.82;0.52;;;10.70;62.20;;;;;;5015309;28;20022;-92
2021/05/26 01:08:47;;;;;;;1.58;0.68;;;10.70;62.30;;;;;;5013930;28;20029;-91
2021/05/26 01:11:13;;;;;;;0.88;0.77;;;10.70;62.40;;;;;;5016192;28;20072;-91
2021/05/26 01:13:39;;;;;;;3.58;1.17;;;10.70;62.40;;;;;;5013408;28;20044;-92
2021/05/26 01:16:05;;;;;;;1.15;0.80;;;10.70;62.40;;;;;;5011795;28;20021;-92
2021/05/26 01:18:36;;;;;;;1.95;0.73;;;10.70;62.40;;;;;;5015424;28;20496;-91
2021/05/26 01:21:05;;;;;;;2.58;0.90;;;10.70;62.40;;;;;;5010203;28;20025;-91
2021/05/26 01:23:31;;;;;;;1.35;0.77;;;10.70;62.20;;;;;;5002859;28;20088;-91
2021/05/26 01:25:59;;;;;;;1.95;0.77;;;10.80;62.30;;;;;;5001564;28;20022;-92
2021/05/26 01:28:28;;;;;;;2.33;0.73;;;10.80;62.30;;;;;;5009299;28;20033;-91
2021/05/26 01:30:56;;;;;;;2.75;0.65;;;10.70;62.20;;;;;;5019300;28;20502;-91
2021/05/26 01:33:22;;;;;;;1.48;0.90;;;10.80;62.20;;;;;;5027241;28;20245;-91
2021/05/26 01:35:48;;;;;;;1.65;0.60;;;10.70;62.00;;;;;;5028815;28;20025;-92
2021/05/26 01:38:19;;;;;;;1.95;0.70;;;10.70;62.10;;;;;;5014049;28;20045;-92
2021/05/26 01:40:45;;;;;;;1.63;0.95;;;10.70;62.30;;;;;;5015704;28;20033;-91
2021/05/26 01:43:11;;;;;;;2.35;0.80;;;10.70;62.20;;;;;;5015473;28;20040;-91
2021/05/26 01:45:36;;;;;;;2.03;0.70;;;10.70;62.20;;;;;;5008046;28;20045;-91
2021/05/26 01:48:03;;;;;;;0.95;0.60;;;10.70;62.20;;;;;;5013601;28;20022;-91
2021/05/26 01:50:28;;;;;;;1.48;0.73;;;10.70;62.20;;;;;;5017554;28;20040;-92
2021/05/26 01:53:03;;;;;;;4.13;1.23;;;10.80;62.30;;;;;;5015069;28;20021;-91
2021/05/26 01:55:29;;;;;;;3.05;0.82;;;10.80;62.30;;;;;;5013875;28;20494;-92
2021/05/26 01:57:54;;;;;;;1.92;0.70;;;10.70;62.20;;;;;;5012939;28;20101;-91
2021/05/26 02:00:20;;;;;;;1.45;0.70;;;10.80;62.30;;;;;;5017094;28;20029;-93
2021/05/26 02:02:47;;;;;;;3.92;1.00;;;10.70;62.20;;;;;;5017454;28;20029;-91
2021/05/26 02:05:14;;;;;;;2.00;0.73;;;10.70;62.30;;;;;;5015601;28;20517;-91
2021/05/26 02:07:40;;;;;;;0.98;0.68;;;10.70;62.50;;;;;;5017033;28;20026;-91
2021/05/26 02:10:09;;;;;;;4.10;1.02;;;10.60;62.50;;;;;;5027325;28;20528;-92
2021/05/26 02:12:39;;;;;;;1.58;0.88;;;10.50;63.00;;;;;;5020904;28;20099;-92
2021/05/26 02:15:07;;;;;;;2.00;0.90;;;10.40;63.50;;;;;;5019162;28;20048;-92
2021/05/26 02:17:33;;;;;;;0.73;0.73;;;10.30;63.80;;;;;;5012627;28;20030;-92
2021/05/26 02:19:59;;;;;;;2.33;1.00;;;10.20;64.10;;;;;;5020100;28;20168;-92
2021/05/26 02:22:24;;;;;;;2.40;0.90;;;10.20;64.40;;;;;;5017447;28;20032;-91
2021/05/26 02:24:50;;;;;;;2.67;0.98;;;10.10;64.60;;;;;;5016796;28;20025;-91
2021/05/26 02:27:16;;;;;;;1.77;0.65;;;10.00;64.90;;;;;;5018842;28;20025;-92
2021/05/26 02:29:43;;;;;;;3.83;1.27;;;9.90;65.20;;;;;;5014615;28;20109;-92
2021/05/26 02:32:09;;;;;;;2.40;0.65;;;9.90;65.60;;;;;;5007722;28;20068;-91
2021/05/26 02:34:35;;;;;;;2.03;0.85;;;9.80;66.00;;;;;;5016845;28;20026;-91
2021/05/26 02:37:01;;;;;;;2.65;0.63;;;9.80;66.30;;;;;;5018310;28;20092;-92
2021/05/26 02:39:26;;;;;;;2.38;0.90;;;9.80;66.80;;;;;;5019881;28;20026;-91
2021/05/26 02:41:52;;;;;;;3.63;1.25;;;9.80;67.20;;;;;;5035255;28;20033;-92
2021/05/26 02:44:18;;;;;;;2.47;0.77;;;9.80;67.30;;;;;;5016545;28;20047;-91
2021/05/26 02:46:46;;;;;;;3.53;0.90;;;9.80;67.40;;;;;;5017869;28;20025;-92
2021/05/26 02:49:12;;;;;;;3.35;0.80;;;9.80;67.60;;;;;;5017442;28;20025;-92
2021/05/26 02:51:38;;;;;;;1.08;0.68;;;9.80;68.00;;;;;;5024388;28;20041;-91
2021/05/26 02:56:32;;;;;;;1.95;0.80;;;9.80;68.30;;;;;;5001336;28;20050;-72
2021/05/26 02:58:58;;;;;;;4.82;0.85;;;9.80;68.50;;;;;;5009664;28;20084;-73
2021/05/26 03:01:23;;;;;;;1.35;0.80;;;9.80;68.50;;;;;;5011957;28;20033;-72
2021/05/26 03:03:49;;;;;;;2.25;0.90;;;9.70;68.60;;;;;;4992970;28;20030;-72
2021/05/26 03:06:15;;;;;;;0.90;0.80;;;9.70;68.80;;;;;;5011140;28;20101;-72
2021/05/26 03:08:41;;;;;;;2.45;0.75;;;9.70;68.90;;;;;;5012712;28;20084;-71
2021/05/26 03:11:06;;;;;;;0.80;0.80;;;9.70;69.00;;;;;;5011438;28;20053;-72
2021/05/26 03:13:32;;;;;;;3.33;0.88;;;9.70;69.20;;;;;;5011251;28;20076;-72
2021/05/26 03:15:58;;;;;;;2.88;0.70;;;9.70;69.40;;;;;;5010491;28;20017;-71
2021/05/26 03:18:24;;;;;;;5.22;0.95;;;9.70;69.50;;;;;;4994364;28;20030;-72
2021/05/26 03:20:50;;;;;;;2.88;1.00;;;9.70;69.70;;;;;;4994671;28;20422;-72
2021/05/26 03:23:18;;;;;;;4.47;0.80;;;9.70;69.70;;;;;;4994225;28;20097;-72
2021/05/26 03:25:47;;;;;;;2.10;0.88;;;9.70;69.90;;;;;;5008025;28;20018;-71
2021/05/26 03:28:13;;;;;;;1.98;0.70;;;9.70;70.00;;;;;;4992936;28;20030;-72
2021/05/26 03:30:39;;;;;;;2.58;0.90;;;9.70;70.10;;;;;;5012115;28;20025;-70
2021/05/26 03:33:06;;;;;;;2.67;0.90;;;9.70;70.30;;;;;;4994578;28;20018;-72
2021/05/26 03:35:33;;;;;;;2.15;0.90;;;9.70;70.40;;;;;;5010243;28;20026;-72
2021/05/26 03:37:58;;;;;;;1.92;0.73;;;9.60;70.40;;;;;;4994284;28;20366;-72
2021/05/26 03:40:24;;;;;;;2.33;0.70;;;9.70;70.60;;;;;;4994364;28;20030;-75
2021/05/26 03:42:50;;;;;;;1.83;0.73;;;9.70;70.70;;;;;;5007433;28;20112;-72
2021/05/26 03:45:16;;;;;;;1.92;0.80;;;9.60;70.70;;;;;;4992892;28;20455;-71
2021/05/26 03:47:42;;;;;;;2.90;1.00;;;9.60;70.70;;;;;;5012276;28;20030;-72
2021/05/26 03:50:12;;;;;;;2.42;0.95;;;9.60;70.90;;;;;;5012039;28;20048;-73
2021/05/26 03:52:47;;;;;;;1.30;0.77;;;9.60;71.10;;;;;;5011527;28;20371;-72
2021/05/26 03:55:17;;;;;;;1.77;0.80;;;9.60;71.40;;;;;;4998690;28;20030;-72
2021/05/26 03:57:42;;;;;;;2.25;1.00;;;9.60;71.20;;;;;;5008524;28;20030;-72
2021/05/26 04:00:11;;;;;;;2.85;0.90;;;9.60;71.40;;;;;;5010886;28;20378;-72
2021/05/26 04:02:37;;;;;;;3.20;1.10;;;9.60;71.50;;;;;;4993922;28;20432;-73
2021/05/26 04:05:03;;;;;;;2.08;0.80;;;9.60;71.50;;;;;;4992982;28;20060;-72
2021/05/26 04:07:29;;;;;;;1.20;0.77;;;9.60;71.70;;;;;;4994147;28;20033;-73
2021/05/26 04:09:55;;;;;;;3.45;1.08;;;9.60;71.90;;;;;;4993293;28;20033;-73
2021/05/26 04:12:21;;;;;;;1.85;1.15;;;9.50;71.90;;;;;;5010051;28;20054;-73
2021/05/26 04:14:47;;;;;;;2.05;0.80;;;9.60;72.20;;;;;;4992195;28;20022;-73
2021/05/26 04:17:12;;;;;;;2.65;0.98;;;9.50;72.30;;;;;;5010392;28;20045;-73
2021/05/26 04:19:38;;;;;;;3.00;1.00;;;9.50;72.50;;;;;;5010706;28;20109;-73
2021/05/26 04:22:04;;;;;;;1.48;0.90;;;9.50;72.70;;;;;;5010415;28;20038;-73
2021/05/26 04:24:29;;;;;;;1.02;0.80;;;9.50;72.80;;;;;;4987546;28;20069;-73
2021/05/26 04:26:55;;;;;;;3.95;0.88;;;9.50;73.00;;;;;;4998006;28;20703;-72
2021/05/26 04:29:21;;;;;;;4.40;0.85;;;9.50;73.10;;;;;;5010387;28;20026;-73
2021/05/26 04:31:46;;;;;;;2.60;0.85;;;9.50;73.20;;;;;;4992102;28;20634;-73
2021/05/26 04:34:15;;;;;;;4.55;1.00;;;9.50;73.40;;;;;;4990973;28;20426;-72
2021/05/26 04:36:41;;;;;;;2.50;1.00;;;9.50;73.70;;;;;;5009377;28;20030;-72
2021/05/26 04:39:07;;;;;;;2.65;0.80;;;9.50;73.80;;;;;;5010200;28;20029;-73
2021/05/26 04:41:33;;;;;;;1.40;0.90;;;9.50;73.90;;;;;;5010165;28;20047;-73
2021/05/26 04:43:59;;;;;;;3.92;1.02;;;9.50;73.90;;;;;;5008600;28;20036;-73
2021/05/26 04:46:24;;;;;;;3.13;1.00;;;9.50;74.10;;;;;;4992784;28;20513;-72
2021/05/26 04:48:50;;;;;;;1.52;0.70;;;9.50;74.20;;;;;;4992824;28;20029;-73
2021/05/26 04:51:15;;;;;;;2.08;0.88;;;9.50;74.30;;;;;;5010422;28;20029;-73
2021/05/26 04:53:41;;;;;;;2.25;1.10;;;9.60;74.50;;;;;;4992971;28;20646;-72
2021/05/26 04:56:06;;;;;;;2.33;0.85;;;9.50;74.50;;;;;;4998294;28;20119;-73
2021/05/26 04:58:32;;;;;;;2.15;0.80;;;9.60;74.60;;;;;;5007667;28;20064;-72
2021/05/26 05:00:58;;;;;;;3.35;0.90;;;9.60;74.70;;;;;;5016322;28;20046;-72
2021/05/26 05:03:24;;;;;;;2.90;1.10;;;9.60;74.80;;;;;;5011769;28;20052;-72
2021/05/26 05:05:49;;;;;;;4.05;0.95;;;9.60;74.80;;;;;;5011205;28;20029;-74
2021/05/26 05:08:15;;;;;;;3.47;1.00;;;9.60;75.40;;;;;;5011833;28;20030;-74
2021/05/26 05:10:40;;;;;;;1.90;0.60;;;9.60;75.00;;;;;;5029344;28;20041;-74
2021/05/26 05:13:06;;;;;;;1.25;0.90;;;9.60;75.00;;;;;;5030059;28;20029;-73
2021/05/26 05:15:32;;;;;;;2.78;1.00;;;9.60;75.10;;;;;;5027448;28;20104;-74
2021/05/26 05:17:58;;;;;;;4.60;1.23;;;9.60;75.20;;;;;;5029451;28;20021;-73
2021/05/26 05:20:24;;;;;;;3.72;0.90;;;9.60;75.50;;;;;;5011097;28;20045;-73
2021/05/26 05:22:51;;;;;;;1.13;0.68;;;9.60;75.60;;;;;;5012814;28;20386;-72
2021/05/26 05:25:17;;;;;;;3.95;0.90;;;9.60;75.60;;;;;;5023723;28;20037;-74
2021/05/26 05:27:43;;;;;;;2.47;1.02;;;9.60;75.70;;;;;;5026061;28;20034;-73
2021/05/26 05:30:10;;;;;;;2.03;0.98;;;9.60;75.80;;;;;;5015097;28;20108;-71
2021/05/26 05:32:36;;;;;;;2.60;1.55;;;9.60;75.90;;;;;;5030388;28;20036;-71
2021/05/26 05:35:02;;;;;;;3.83;1.50;;;9.60;76.20;;;;;;5032762;28;20017;-71
2021/05/26 05:37:28;;;;;;;2.58;1.00;;;9.50;76.20;;;;;;5033797;28;20515;-71
2021/05/26 05:39:53;;;;;;;2.70;0.80;;;9.50;76.30;;;;;;5034175;28;20021;-71
2021/05/26 05:42:19;;;;;;;3.03;0.90;;;9.50;76.50;;;;;;5032964;28;20494;-71
2021/05/26 05:44:45;;;;;;;3.00;1.02;;;9.50;76.60;;;;;;5015160;28;20029;-71
2021/05/26 05:47:12;;;;;;;1.75;0.80;;;9.60;76.80;;;;;;5015105;28;20091;-72
2021/05/26 05:49:38;;;;;;;3.00;1.33;;;9.50;76.70;;;;;;5016170;28;20116;-70
2021/05/26 05:52:03;;;;;;;5.45;1.60;;;9.60;76.90;;;;;;5030669;28;20108;-72
2021/05/26 05:54:29;;;;;;;1.27;0.93;;;9.60;77.00;;;;;;5028221;28;20048;-72
2021/05/26 05:56:54;;;;;;;2.60;1.35;;;9.60;77.10;;;;;;5013713;28;20030;-72
2021/05/26 05:59:20;;;;;;;3.20;1.05;;;9.60;77.20;;;;;;5007776;28;20496;-71
2021/05/26 06:01:46;;;;;;;2.65;0.93;;;9.60;77.40;;;;;;5014845;28;20033;-72
2021/05/26 06:04:11;;;;;;;4.47;1.27;;;9.60;77.30;;;;;;5032424;28;20033;-73
2021/05/26 06:06:37;;;;;;;3.28;1.02;;;9.60;77.40;;;;;;5013366;28;20121;-72
2021/05/26 06:09:03;;;;;;;2.40;0.98;;;9.60;77.50;;;;;;5015828;28;20048;-72
2021/05/26 06:11:29;;;;;;;9.52;1.48;;;9.60;77.70;;;;;;5033207;28;20036;-73
2021/05/26 06:13:55;;;;;;;2.50;0.93;;;9.60;77.70;;;;;;5031653;28;20033;-73
2021/05/26 06:16:20;;;;;;;3.75;1.52;;;9.60;77.90;;;;;;5033311;28;20029;-72
2021/05/26 06:18:46;;;;;;;1.13;1.00;;;9.60;78.00;;;;;;5032475;28;20037;-73
2021/05/26 06:21:11;;;;;;;6.32;1.40;;;9.60;78.10;;;;;;5015370;28;20386;-71
2021/05/26 06:23:37;;;;;;;1.67;0.90;;;9.60;78.20;;;;;;5032349;28;20037;-73
2021/05/26 06:26:03;;;;;;;4.47;1.00;;;9.60;78.20;;;;;;5005190;28;20030;-72
2021/05/26 06:28:28;;;;;;;1.55;0.88;;;9.60;78.20;;;;;;5011961;28;20131;-72
2021/05/26 06:30:57;;;;;;;3.17;0.95;;;9.60;78.30;;;;;;5031605;28;20063;-73
2021/05/26 06:33:23;;;;;;;3.22;1.15;;;9.60;78.40;;;;;;5032076;28;20021;-72
2021/05/26 06:35:49;;;;;;;3.70;1.00;;;9.60;78.60;;;;;;5013007;28;20584;-74
2021/05/26 06:38:14;;;;;;;1.65;1.15;;;9.60;78.60;;;;;;5013820;28;20032;-74
2021/05/26 06:40:40;;;;;;;1.73;0.90;;;9.60;78.60;;;;;;5031461;28;20038;-74
2021/05/26 06:43:05;;;;;;;5.60;1.27;;;9.60;78.70;;;;;;5027953;28;20037;-73
2021/05/26 06:45:31;;;;;;;4.93;2.28;;;9.60;78.90;;;;;;5028902;28;20029;-71
2021/05/26 06:47:57;;;;;;;3.42;1.33;;;9.60;79.20;;;;;;5032283;28;20505;-73
2021/05/26 06:50:22;;;;;;;3.28;1.52;;;9.50;79.00;;;;;;5031781;28;20030;-72
2021/05/26 06:52:48;;;;;;;2.42;1.25;;;9.50;79.10;;;;;;5014930;28;20112;-72
2021/05/26 06:55:13;;;;;;;4.35;0.98;;;9.50;79.20;;;;;;5013198;28;20108;-72
2021/05/26 06:57:39;;;;;;;3.92;1.00;;;9.50;79.30;;;;;;5028000;28;20029;-74
2021/05/26 07:00:06;;;;;;;3.75;1.30;;;9.60;79.60;;;;;;5031914;28;20469;-74
2021/05/26 07:02:32;;;;;;;2.53;1.00;;;9.60;79.60;;;;;;5013538;28;20030;-71
2021/05/26 07:04:57;;;;;;;4.28;1.00;;;9.60;79.60;;;;;;5030297;28;20117;-73
2021/05/26 07:07:23;;;;;;;4.88;2.55;;;9.60;79.60;;;;;;5031119;28;20033;-73
2021/05/26 07:09:49;;;;;;;4.68;1.25;;;9.60;79.80;;;;;;5014036;28;20568;-73
2021/05/26 07:12:14;;;;;;;4.00;1.00;;;9.60;79.80;;;;;;5031026;28;20492;-73
2021/05/26 07:14:41;;;;;;;2.85;0.90;;;9.60;79.80;;;;;;5031174;28;20106;-74
2021/05/26 07:17:07;;;;;;;1.95;1.10;;;9.60;80.00;;;;;;5014065;28;20404;-74
2021/05/26 07:19:32;;;;;;;2.10;1.15;;;9.70;80.10;;;;;;5031819;28;20037;-72
2021/05/26 07:21:58;;;;;;;4.72;1.23;;;9.70;80.10;;;;;;5014497;28;20021;-74
2021/05/26 07:24:23;;;;;;;3.40;1.00;;;9.70;80.20;;;;;;5027682;28;20080;-74
2021/05/26 07:26:49;;;;;;;2.53;1.02;;;9.70;80.20;;;;;;4994387;28;20497;-74
2021/05/26 07:29:14;;;;;;;2.28;0.80;;;9.70;80.20;;;;;;5020814;28;20385;-72
2021/05/26 07:31:41;;;;;;;3.20;0.90;;;9.70;80.20;;;;;;5025410;28;20502;-74
2021/05/26 07:34:07;;;;;;;2.83;0.80;;;9.80;80.30;;;;;;5030291;28;20025;-71
2021/05/26 07:36:33;;;;;;;1.70;0.70;;;9.80;80.40;;;;;;5014429;28;20021;-72
2021/05/26 07:39:00;;;;;;;1.67;0.77;;;9.80;80.50;;;;;;5013475;28;20036;-73
2021/05/26 07:41:25;;;;;;;0.93;0.75;;;9.80;80.50;;;;;;5031358;28;20026;-73
2021/05/26 07:43:51;;;;;;;3.80;1.10;;;9.80;80.50;;;;;;5030969;28;20496;-72
2021/05/26 07:46:17;;;;;;;1.98;1.35;;;9.80;80.40;;;;;;5011927;28;20033;-73
2021/05/26 07:48:43;;;;;;;3.00;1.88;;;9.80;80.50;;;;;;5012338;28;20030;-73
2021/05/26 07:51:09;;;;;;;3.95;2.10;;;9.80;80.70;;;;;;5030531;28;20436;-74
2021/05/26 07:53:35;;;;;;;2.13;1.08;;;9.90;80.70;;;;;;5013156;28;20052;-73
2021/05/26 07:56:02;;;;;;;2.60;1.38;;;9.90;80.80;;;;;;5012247;28;20030;-73
2021/05/26 07:58:27;;;;;;;3.70;1.38;;;9.90;80.80;;;;;;5010695;28;20108;-70
2021/05/26 08:00:53;;;;;;;3.83;1.52;;;9.90;80.90;;;;;;5010351;28;20105;-74
2021/05/26 08:03:19;;;;;;;1.48;1.20;;;10.00;81.00;;;;;;5011348;28;20044;-74
2021/05/26 08:05:45;;;;;;;3.22;1.63;;;10.00;81.10;;;;;;4992086;28;20120;-74
2021/05/26 08:08:10;;;;;;;2.75;1.00;;;10.00;81.10;;;;;;4992794;28;20026;-74
2021/05/26 08:10:36;;;;;;;2.95;1.20;;;10.10;81.20;;;;;;5010573;28;20248;-73
2021/05/26 08:13:01;;;;;;;2.22;1.10;;;10.10;81.10;;;;;;5011113;28;20445;-74
2021/05/26 08:15:27;;;;;;;3.30;1.92;;;10.10;81.10;;;;;;5008490;28;20029;-74
2021/05/26 08:17:53;;;;;;;1.95;1.20;;;10.10;81.20;;;;;;4992494;28;20030;-74
2021/05/26 08:20:18;;;;;;;3.33;1.10;;;10.10;81.30;;;;;;5010212;28;20040;-73
2021/05/26 08:22:44;;;;;;;2.35;1.00;;;10.10;81.50;;;;;;4992816;28;20113;-72
2021/05/26 08:25:10;;;;;;;2.97;1.83;;;10.10;81.60;;;;;;4989266;28;20026;-74
2021/05/26 08:27:36;;;;;;;4.80;1.60;;;10.10;81.50;;;;;;4995215;28;20029;-74
2021/05/26 08:30:02;;;;;;;1.80;1.02;;;10.10;81.50;;;;;;5002238;28;20026;-74
2021/05/26 08:32:29;;;;;;;3.25;1.33;;;10.20;81.70;;;;;;4991766;28;20592;-74
2021/05/26 08:34:55;;;;;;;3.78;1.30;;;10.20;81.80;;;;;;4991817;28;20022;-74
2021/05/26 08:37:21;;;;;;;2.75;1.20;;;10.20;82.00;;;;;;4991895;28;20026;-73
2021/05/26 08:39:47;;;;;;;3.90;1.30;;;10.20;82.10;;;;;;4991678;28;20120;-74
2021/05/26 08:42:16;;;;;;;2.05;1.48;;;10.20;82.00;;;;;;5009634;28;20125;-73
2021/05/26 08:44:41;;;;;;;4.68;1.48;;;10.30;82.10;;;;;;5001755;28;20070;-73
2021/05/26 08:47:13;;;;;;;3.75;1.30;;;10.30;82.10;;;;;;5003326;28;20069;-72
2021/05/26 08:49:43;;;;;;;4.95;1.55;;;10.30;82.70;;;;;;5004813;28;20394;-73
2021/05/26 08:52:08;;;;;;;2.17;1.17;;;10.30;82.10;;;;;;5010079;28;20033;-74
2021/05/26 08:54:34;;;;;;;3.22;1.30;;;10.30;82.10;;;;;;5013192;28;20397;-74
2021/05/26 08:57:00;;;;;;;3.38;1.20;;;10.30;82.10;;;;;;5028789;28;20033;-73
2021/05/26 08:59:25;;;;;;;5.03;1.52;;;10.30;82.10;;;;;;5028995;28;20044;-73
2021/05/26 09:01:53;;;;;;;4.65;1.63;;;10.30;82.20;;;;;;5030543;28;20024;-72
2021/05/26 09:04:45;;;;;;;6.05;1.25;;;10.30;82.30;;;;;;5029575;28;20025;-72
2021/05/26 09:07:18;;;;;;;2.80;1.20;;;10.30;82.70;;;;;;5006367;28;20045;-72
2021/05/26 09:09:52;;;;;;;4.85;1.42;;;10.40;82.60;;;;;;5008101;28;20033;-72
2021/05/26 09:12:43;;;;;;;4.25;1.50;;;10.40;82.50;;;;;;5022393;28;20370;-71
2021/05/26 09:15:27;;;;;;;4.43;1.33;;;10.40;82.70;;;;;;5029249;28;20104;-72
2021/05/26 09:17:57;;;;;;;4.80;1.63;;;10.40;82.80;;;;;;5029757;28;20025;-72
2021/05/26 09:20:29;;;;;;;4.43;1.73;;;10.40;82.60;;;;;;5012371;28;20025;-72
2021/05/26 09:23:09;;;;;;;4.50;1.70;;;10.40;82.40;;;;;;5030132;28;20034;-71
2021/05/26 09:25:37;;;;;;;4.18;1.70;;;10.40;82.80;;;;;;5010627;28;20026;-73
2021/05/26 09:28:24;;;;;;;3.03;1.52;;;10.40;82.60;;;;;;5011495;28;20022;-72
2021/05/26 09:31:06;;;;;;;4.55;1.80;;;10.40;82.90;;;;;;5027522;28;20033;-72
2021/05/26 09:33:47;;;;;;;2.63;1.80;;;10.40;82.70;;;;;;5030098;28;20022;-72
2021/05/26 09:36:21;;;;;;;7.90;2.40;;;10.30;82.70;;;;;;5029980;28;20485;-73
2021/05/26 09:38:49;;;;;;;5.10;2.10;;;10.30;82.60;;;;;;5012397;28;20033;-72
2021/05/26 09:41:14;;;;;;;5.00;1.60;;;10.30;82.60;;;;;;5029822;28;20026;-73
2021/05/26 09:43:41;;;;;;;5.57;1.80;;;10.30;82.60;;;;;;5011365;28;20030;-72
2021/05/26 09:46:26;;;;;;;3.33;1.48;;;10.30;82.70;;;;;;5027177;28;20017;-73
2021/05/26 09:49:16;;;;;;;5.65;2.10;;;10.30;83.20;;;;;;5029748;28;20087;-73
2021/05/26 09:51:52;;;;;;;5.95;2.58;;;10.30;83.10;;;;;;5029606;28;20024;-72
2021/05/26 09:54:21;;;;;;;4.68;1.63;;;10.30;83.10;;;;;;5028966;28;20030;-71
2021/05/26 09:56:53;;;;;;;3.67;1.40;;;10.30;82.80;;;;;;5012191;28;20025;-73
2021/05/26 09:59:20;;;;;;;13.02;4.97;;;10.30;82.90;;;;;;5020675;28;20084;-73
2021/05/26 10:01:46;;;;;;;4.38;2.30;;;10.30;82.90;;;;;;5022454;28;20029;-73
2021/05/26 10:04:12;;;;;;;2.97;1.58;;;10.30;83.00;;;;;;5011763;28;20040;-72
2021/05/26 10:06:39;;;;;;;3.88;2.00;;;10.40;83.00;;;;;;5030069;28;20100;-72
2021/05/26 10:09:09;;;;;;;4.70;1.70;;;10.40;83.00;;;;;;5011915;28;20030;-73
2021/05/26 10:11:35;;;;;;;4.90;1.50;;;10.40;82.90;;;;;;5029985;28;20064;-73
2021/05/26 10:14:07;;;;;;;5.32;1.60;;;10.40;83.00;;;;;;5027487;28;20489;-72
2021/05/26 10:16:37;;;;;;;5.95;1.90;;;10.40;83.00;;;;;;5012132;28;20022;-73
2021/05/26 10:19:04;;;;;;;4.95;1.70;;;10.50;82.90;;;;;;5029571;28;20021;-73
2021/05/26 10:21:31;;;;;;;5.45;1.70;;;10.50;83.00;;;;;;5032731;28;20420;-73
2021/05/26 10:23:59;;;;;;;6.38;2.20;;;10.40;82.90;;;;;;5032906;28;20030;-73
2021/05/26 10:26:46;;;;;;;6.07;1.67;;;10.40;82.80;;;;;;5015998;28;20032;-73
2021/05/26 10:29:30;;;;;;;8.23;1.70;;;10.40;83.10;;;;;;5032591;28;20108;-71
2021/05/26 10:32:07;;;;;;;6.20;1.65;;;10.40;83.10;;;;;;5033474;28;20021;-72
2021/05/26 10:34:46;;;;;;;3.45;1.48;;;10.50;83.00;;;;;;5030680;28;20373;-72
2021/05/26 10:37:14;;;;;;;5.60;1.60;;;10.50;83.10;;;;;;5014903;28;20032;-72
2021/05/26 10:39:40;;;;;;;4.35;1.55;;;10.50;82.70;;;;;;5015692;28;20508;-72
2021/05/26 10:42:35;;;;;;;2.90;1.40;;;10.50;83.10;;;;;;5028731;28;20027;-72
2021/05/26 10:45:06;;;;;;;5.25;1.92;;;10.50;82.90;;;;;;5027722;28;20040;-73
2021/05/26 10:47:42;;;;;;;4.57;1.92;;;10.50;82.60;;;;;;5031570;28;20025;-73
2021/05/26 10:50:15;;;;;;;5.03;1.98;;;10.50;82.80;;;;;;5032544;28;20040;-73
2021/05/26 10:53:09;;;;;;;4.47;1.60;;;10.50;82.70;;;;;;5033118;28;20028;-73
2021/05/26 10:55:42;;;;;;;3.58;1.45;;;10.50;82.90;;;;;;5005301;28;20042;-72
2021/05/26 10:58:25;;;;;;;5.82;1.58;;;10.60;82.70;;;;;;5027047;28;20028;-72
2021/05/26 11:00:59;;;;;;;3.03;1.40;;;10.50;82.80;;;;;;5024714;28;20468;-73
2021/05/26 11:03:25;;;;;;;3.40;1.58;;;10.50;82.70;;;;;;5028676;28;20033;-73
2021/05/26 11:05:55;;;;;;;3.97;1.55;;;10.50;82.70;;;;;;5013803;28;20575;-72
2021/05/26 11:08:35;;;;;;;5.75;1.45;;;10.60;82.80;;;;;;5032584;28;20030;-73
2021/05/26 11:11:23;;;;;;;3.50;1.55;;;10.60;82.90;;;;;;5032530;28;20018;-72
2021/05/26 11:14:01;;;;;;;3.97;1.50;;;10.60;82.90;;;;;;5024851;28;20021;-72
2021/05/26 11:16:40;;;;;;;4.47;1.40;;;10.60;82.80;;;;;;5014363;28;20025;-73
2021/05/26 11:19:11;;;;;;;4.13;1.60;;;10.70;82.90;;;;;;5032219;28;20074;-72
2021/05/26 11:21:38;;;;;;;5.28;1.58;;;10.70;82.70;;;;;;5022334;28;20072;-72
2021/05/26 11:24:04;;;;;;;7.63;2.40;;;10.70;82.70;;;;;;5032574;28;20032;-73
2021/05/26 11:26:35;;;;;;;5.25;1.60;;;10.80;83.20;;;;;;5031802;28;20026;-73
2021/05/26 11:29:02;;;;;;;3.85;1.38;;;10.80;82.80;;;;;;5014790;28;20040;-73
2021/05/26 11:31:28;;;;;;;2.53;1.10;;;10.80;82.90;;;;;;5012610;28;20025;-72
2021/05/26 11:33:55;;;;;;;4.47;1.52;;;10.90;82.80;;;;;;5031708;28;20033;-72
2021/05/26 11:36:45;;;;;;;2.85;1.35;;;10.90;82.70;;;;;;5032264;28;20071;-71
2021/05/26 11:39:15;;;;;;;2.97;1.33;;;11.00;83.10;;;;;;5014405;28;20409;-70
2021/05/26 11:41:41;;;;;;;2.58;1.30;;;11.00;82.60;;;;;;5031652;28;20091;-72
2021/05/26 11:44:06;;;;;;;4.00;1.30;;;11.00;82.50;;;;;;5005660;28;20041;-72
2021/05/26 11:46:32;;;;;;;3.53;1.10;;;11.10;82.60;;;;;;5013407;28;20087;-72
2021/05/26 11:48:57;;;;;;;2.00;1.00;;;11.10;82.50;;;;;;5031528;28;20104;-71
2021/05/26 11:51:27;;;;;;;2.05;1.10;;;11.10;82.30;;;;;;5031845;28;20032;-72
2021/05/26 11:53:55;;;;;;;5.75;1.60;;;11.10;82.30;;;;;;5030999;28;20028;-72
2021/05/26 11:56:22;;;;;;;6.00;1.52;;;11.10;82.30;;;;;;5031751;28;20025;-71
2021/05/26 11:58:47;;;;;;;4.20;1.17;;;11.00;82.40;;;;;;5031145;28;20445;-71
2021/05/26 12:01:14;;;;;;;7.13;2.60;;;11.10;82.50;;;;;;5031154;28;20504;-71
2021/05/26 12:03:41;;;;;;;3.67;1.48;;;11.10;82.50;;;;;;5013679;28;20124;-72
2021/05/26 12:06:06;;;;;;;11.93;4.65;;;11.10;82.50;;;;;;5013479;28;20094;-72
2021/05/26 12:08:42;;;;;;;2.95;1.40;;;11.20;82.80;;;;;;5030803;28;20402;-71
2021/05/26 12:11:12;;;;;;;1.70;0.93;;;11.20;83.00;;;;;;5006776;28;20030;-71
2021/05/26 12:13:40;;;;;;;4.60;1.70;;;11.30;82.50;;;;;;5022461;28;20041;-72
2021/05/26 12:16:11;;;;;;;1.88;0.93;;;11.30;82.50;;;;;;5030719;28;20044;-72
2021/05/26 12:18:51;;;;;;;5.40;1.33;;;11.40;82.30;;;;;;5013906;28;20112;-72
2021/05/26 12:21:19;;;;;;;3.53;1.05;;;11.40;82.20;;;;;;5031303;28;20727;-72
2021/05/26 12:23:47;;;;;;;1.92;1.00;;;11.40;82.20;;;;;;5013908;28;20121;-71
2021/05/26 12:26:45;;;;;;;3.13;1.10;;;11.40;82.10;;;;;;5030917;28;20090;-71
2021/05/26 12:29:11;;;;;;;2.58;1.13;;;11.50;82.30;;;;;;5030679;28;20509;-72
2021/05/26 12:31:38;;;;;;;2.67;0.68;;;11.50;82.00;;;;;;5031302;28;20033;-72
2021/05/26 12:34:15;;;;;;;1.85;0.80;;;11.50;81.90;;;;;;5012634;28;20045;-72
2021/05/26 12:36:53;;;;;;;0.60;0.60;;;11.50;81.70;;;;;;5013450;28;20021;-72
2021/05/26 12:39:20;;;;;;;4.22;1.13;;;11.50;81.40;;;;;;5031391;28;20036;-72
2021/05/26 12:41:47;;;;;;;2.50;1.05;;;11.50;81.10;;;;;;5007457;28;20486;-72
2021/05/26 12:44:13;;;;;;;2.65;1.35;;;11.50;81.00;;;;;;5019620;28;20029;-72
2021/05/26 12:46:50;;;;;;;2.75;1.00;;;11.60;81.20;;;;;;5030848;28;20175;-73
2021/05/26 12:49:49;;;;;;;3.58;2.30;;;11.60;81.20;;;;;;5030866;28;20117;-72
2021/05/26 12:52:32;;;;;;;0.90;0.70;;;11.70;81.10;;;;;;5030656;28;20049;-71
2021/05/26 12:55:06;;;;;;;4.20;1.20;;;11.70;80.80;;;;;;5012561;28;20029;-71
2021/05/26 12:57:31;;;;;;;2.50;1.23;;;11.80;81.00;;;;;;5025308;28;20481;-72